sensor_id;sensor_type;location;lat;lon;timestamp;temperature;humidity
21312;DHT22;18076;52.154;10.570;2024-03-07T00:00:15;2.90;99.90
21312;DHT22;18076;52.154;10.570;2024-03-07T00:02:49;2.90;99.90
21312;DHT22;18076;52.154;10.570;2024-03-07T00:05:15;2.90;99.90
21312;DHT22;18076;52.154;10.570;2024-03-07T00:07:41;2.90;99.90
21312;DHT22;18076;52.154;10.570;2024-03-07T00:10:07;2.90;99.90
21312;DHT22;18076;52.154;10.570;2024-03-07T00:12:33;2.90;99.90
21312;DHT22;18076;52.154;10.570;2024-03-07T00:15:01;2.80;99.90
21312;DHT22;18076;52.154;10.570;2024-03-07T00:17:26;2.80;99.90
21312;DHT22;18076;52.154;10.570;2024-03-07T00:19:52;2.80;99.90
21312;DHT22;18076;52.154;10.570;2024-03-07T00:22:18;2.80;99.90
21312;DHT22;18076;52.154;10.570;2024-03-07T00:24:53;2.70;99.90
21312;DHT22;18076;52.154;10.570;2024-03-07T00:27:40;2.70;99.90
21312;DHT22;18076;52.154;10.570;2024-03-07T00:30:05;2.60;99.90
21312;DHT22;18076;52.154;10.570;2024-03-07T00:32:33;2.50;99.90
21312;DHT22;18076;52.154;10.570;2024-03-07T00:35:01;2.40;99.90
21312;DHT22;18076;52.154;10.570;2024-03-07T00:37:30;2.40;99.90
21312;DHT22;18076;52.154;10.570;2024-03-07T00:39:56;2.40;99.90
21312;DHT22;18076;52.154;10.570;2024-03-07T00:42:24;2.30;99.90
21312;DHT22;18076;52.154;10.570;2024-03-07T00:44:52;2.30;99.90
21312;DHT22;18076;52.154;10.570;2024-03-07T00:47:18;2.20;99.90
21312;DHT22;18076;52.154;10.570;2024-03-07T00:49:44;2.20;99.90
21312;DHT22;18076;52.154;10.570;2024-03-07T00:52:19;2.20;99.90
21312;DHT22;18076;52.154;10.570;2024-03-07T00:55:14;2.20;99.90
21312;DHT22;18076;52.154;10.570;2024-03-07T00:57:40;2.20;99.90
21312;DHT22;18076;52.154;10.570;2024-03-07T01:00:06;2.30;99.90
21312;DHT22;18076;52.154;10.570;2024-03-07T01:02:36;2.30;99.90
21312;DHT22;18076;52.154;10.570;2024-03-07T01:05:04;2.40;99.90
21312;DHT22;18076;52.154;10.570;2024-03-07T01:07:35;2.40;99.90
21312;DHT22;18076;52.154;10.570;2024-03-07T01:10:02;2.50;99.90
21312;DHT22;18076;52.154;10.570;2024-03-07T01:12:28;2.60;99.90
21312;DHT22;18076;52.154;10.570;2024-03-07T01:14:55;2.60;99.90
21312;DHT22;18076;52.154;10.570;2024-03-07T01:17:22;2.70;99.90
21312;DHT22;18076;52.154;10.570;2024-03-07T01:19:49;2.80;99.90
21312;DHT22;18076;52.154;10.570;2024-03-07T01:22:14;2.80;99.90
21312;DHT22;18076;52.154;10.570;2024-03-07T01:24:40;2.90;99.90
21312;DHT22;18076;52.154;10.570;2024-03-07T01:27:06;3.00;99.90
21312;DHT22;18076;52.154;10.570;2024-03-07T01:29:31;3.00;99.90
21312;DHT22;18076;52.154;10.570;2024-03-07T01:31:57;3.10;99.90
21312;DHT22;18076;52.154;10.570;2024-03-07T01:34:23;3.10;99.90
21312;DHT22;18076;52.154;10.570;2024-03-07T01:36:48;3.20;99.90
21312;DHT22;18076;52.154;10.570;2024-03-07T01:39:15;3.20;99.90
21312;DHT22;18076;52.154;10.570;2024-03-07T01:41:41;3.30;99.90
21312;DHT22;18076;52.154;10.570;2024-03-07T01:44:06;3.30;99.90
21312;DHT22;18076;52.154;10.570;2024-03-07T01:46:32;3.40;99.90
21312;DHT22;18076;52.154;10.570;2024-03-07T01:48:58;3.40;99.90
21312;DHT22;18076;52.154;10.570;2024-03-07T01:51:24;3.40;99.90
21312;DHT22;18076;52.154;10.570;2024-03-07T01:53:50;3.50;99.90
21312;DHT22;18076;52.154;10.570;2024-03-07T01:56:17;3.50;99.90
21312;DHT22;18076;52.154;10.570;2024-03-07T01:58:46;3.60;99.90
21312;DHT22;18076;52.154;10.570;2024-03-07T02:01:12;3.70;99.90
21312;DHT22;18076;52.154;10.570;2024-03-07T02:03:41;3.70;99.90
21312;DHT22;18076;52.154;10.570;2024-03-07T02:06:12;3.80;99.90
21312;DHT22;18076;52.154;10.570;2024-03-07T02:08:38;3.80;99.90
21312;DHT22;18076;52.154;10.570;2024-03-07T02:11:04;3.80;99.90
21312;DHT22;18076;52.154;10.570;2024-03-07T02:13:29;3.80;99.90
21312;DHT22;18076;52.154;10.570;2024-03-07T02:15:56;3.80;99.90
21312;DHT22;18076;52.154;10.570;2024-03-07T02:18:22;3.80;99.90
21312;DHT22;18076;52.154;10.570;2024-03-07T02:20:48;3.80;99.90
21312;DHT22;18076;52.154;10.570;2024-03-07T02:23:13;3.90;99.90
21312;DHT22;18076;52.154;10.570;2024-03-07T02:25:40;3.80;99.90
21312;DHT22;18076;52.154;10.570;2024-03-07T02:28:18;3.90;99.90
21312;DHT22;18076;52.154;10.570;2024-03-07T02:30:44;3.90;99.90
21312;DHT22;18076;52.154;10.570;2024-03-07T02:33:26;3.90;99.90
21312;DHT22;18076;52.154;10.570;2024-03-07T02:35:52;3.90;99.90
21312;DHT22;18076;52.154;10.570;2024-03-07T02:38:17;3.90;99.90
21312;DHT22;18076;52.154;10.570;2024-03-07T02:40:43;3.90;99.90
21312;DHT22;18076;52.154;10.570;2024-03-07T02:43:09;3.90;99.90
21312;DHT22;18076;52.154;10.570;2024-03-07T02:45:34;4.00;99.90
21312;DHT22;18076;52.154;10.570;2024-03-07T02:48:00;4.00;99.90
21312;DHT22;18076;52.154;10.570;2024-03-07T02:50:25;4.00;99.90
21312;DHT22;18076;52.154;10.570;2024-03-07T02:52:51;4.00;99.90
21312;DHT22;18076;52.154;10.570;2024-03-07T02:55:17;4.00;99.90
21312;DHT22;18076;52.154;10.570;2024-03-07T02:57:44;4.00;99.90
21312;DHT22;18076;52.154;10.570;2024-03-07T03:00:12;4.10;99.90
21312;DHT22;18076;52.154;10.570;2024-03-07T03:02:52;4.10;99.90
21312;DHT22;18076;52.154;10.570;2024-03-07T03:05:17;4.20;99.90
21312;DHT22;18076;52.154;10.570;2024-03-07T03:07:43;4.10;99.90
21312;DHT22;18076;52.154;10.570;2024-03-07T03:10:19;4.10;99.90
21312;DHT22;18076;52.154;10.570;2024-03-07T03:12:46;4.10;99.90
21312;DHT22;18076;52.154;10.570;2024-03-07T03:15:12;4.10;99.90
21312;DHT22;18076;52.154;10.570;2024-03-07T03:17:40;4.10;99.90
21312;DHT22;18076;52.154;10.570;2024-03-07T03:20:06;4.10;99.90
21312;DHT22;18076;52.154;10.570;2024-03-07T03:22:48;4.00;99.90
21312;DHT22;18076;52.154;10.570;2024-03-07T03:25:15;4.10;99.90
21312;DHT22;18076;52.154;10.570;2024-03-07T03:28:00;4.00;99.90
21312;DHT22;18076;52.154;10.570;2024-03-07T03:30:26;4.00;99.90
21312;DHT22;18076;52.154;10.570;2024-03-07T03:32:52;3.90;99.90
21312;DHT22;18076;52.154;10.570;2024-03-07T03:35:18;4.00;99.90
21312;DHT22;18076;52.154;10.570;2024-03-07T03:37:44;4.00;99.90
21312;DHT22;18076;52.154;10.570;2024-03-07T03:40:10;4.00;99.90
21312;DHT22;18076;52.154;10.570;2024-03-07T03:42:37;4.00;99.90
21312;DHT22;18076;52.154;10.570;2024-03-07T03:45:03;4.00;99.90
21312;DHT22;18076;52.154;10.570;2024-03-07T03:47:35;4.00;99.90
21312;DHT22;18076;52.154;10.570;2024-03-07T03:50:04;4.00;99.90
21312;DHT22;18076;52.154;10.570;2024-03-07T03:52:30;4.10;99.90
21312;DHT22;18076;52.154;10.570;2024-03-07T03:54:56;4.10;99.90
21312;DHT22;18076;52.154;10.570;2024-03-07T03:57:22;4.10;99.90
21312;DHT22;18076;52.154;10.570;2024-03-07T03:59:50;4.10;99.90
21312;DHT22;18076;52.154;10.570;2024-03-07T04:02:16;4.10;99.90
21312;DHT22;18076;52.154;10.570;2024-03-07T04:04:44;4.10;99.90
21312;DHT22;18076;52.154;10.570;2024-03-07T04:07:13;4.10;99.90
21312;DHT22;18076;52.154;10.570;2024-03-07T04:09:41;4.10;99.90
21312;DHT22;18076;52.154;10.570;2024-03-07T04:12:07;4.10;99.90
21312;DHT22;18076;52.154;10.570;2024-03-07T04:14:43;4.10;99.90
21312;DHT22;18076;52.154;10.570;2024-03-07T04:17:21;4.00;99.90
21312;DHT22;18076;52.154;10.570;2024-03-07T04:19:47;4.00;99.90
21312;DHT22;18076;52.154;10.570;2024-03-07T04:22:12;4.10;99.90
21312;DHT22;18076;52.154;10.570;2024-03-07T04:24:38;4.10;99.90
21312;DHT22;18076;52.154;10.570;2024-03-07T04:27:04;4.10;99.90
21312;DHT22;18076;52.154;10.570;2024-03-07T04:29:51;4.10;99.90
21312;DHT22;18076;52.154;10.570;2024-03-07T04:32:17;4.10;99.90
21312;DHT22;18076;52.154;10.570;2024-03-07T04:34:43;4.10;99.90
21312;DHT22;18076;52.154;10.570;2024-03-07T04:37:17;4.10;99.90
21312;DHT22;18076;52.154;10.570;2024-03-07T04:39:43;4.10;99.90
21312;DHT22;18076;52.154;10.570;2024-03-07T04:42:09;4.20;99.90
21312;DHT22;18076;52.154;10.570;2024-03-07T04:44:35;4.20;99.90
21312;DHT22;18076;52.154;10.570;2024-03-07T04:47:04;4.20;99.90
21312;DHT22;18076;52.154;10.570;2024-03-07T04:49:30;4.20;99.90
21312;DHT22;18076;52.154;10.570;2024-03-07T04:51:57;4.20;99.90
21312;DHT22;18076;52.154;10.570;2024-03-07T04:54:23;4.20;99.90
21312;DHT22;18076;52.154;10.570;2024-03-07T04:56:49;4.20;99.90
21312;DHT22;18076;52.154;10.570;2024-03-07T04:59:15;4.20;99.90
21312;DHT22;18076;52.154;10.570;2024-03-07T05:01:42;4.20;99.90
21312;DHT22;18076;52.154;10.570;2024-03-07T05:04:07;4.20;99.90
21312;DHT22;18076;52.154;10.570;2024-03-07T05:06:33;4.30;99.90
21312;DHT22;18076;52.154;10.570;2024-03-07T05:09:02;4.30;99.90
21312;DHT22;18076;52.154;10.570;2024-03-07T05:11:31;4.30;99.90
21312;DHT22;18076;52.154;10.570;2024-03-07T05:13:57;4.30;99.90
21312;DHT22;18076;52.154;10.570;2024-03-07T05:16:23;4.30;99.90
21312;DHT22;18076;52.154;10.570;2024-03-07T05:18:50;4.30;99.90
21312;DHT22;18076;52.154;10.570;2024-03-07T05:21:16;4.30;99.90
21312;DHT22;18076;52.154;10.570;2024-03-07T05:24:10;4.30;99.90
21312;DHT22;18076;52.154;10.570;2024-03-07T05:26:36;4.30;99.90
21312;DHT22;18076;52.154;10.570;2024-03-07T05:29:08;4.30;99.90
21312;DHT22;18076;52.154;10.570;2024-03-07T05:31:34;4.30;99.90
21312;DHT22;18076;52.154;10.570;2024-03-07T05:34:01;4.40;99.90
21312;DHT22;18076;52.154;10.570;2024-03-07T05:36:29;4.40;99.90
21312;DHT22;18076;52.154;10.570;2024-03-07T05:38:56;4.40;99.90
21312;DHT22;18076;52.154;10.570;2024-03-07T05:41:21;4.50;99.90
21312;DHT22;18076;52.154;10.570;2024-03-07T05:43:47;4.50;99.90
21312;DHT22;18076;52.154;10.570;2024-03-07T05:46:13;4.50;99.90
21312;DHT22;18076;52.154;10.570;2024-03-07T05:48:39;4.50;99.90
21312;DHT22;18076;52.154;10.570;2024-03-07T05:51:04;4.50;99.90
21312;DHT22;18076;52.154;10.570;2024-03-07T05:53:30;4.40;99.90
21312;DHT22;18076;52.154;10.570;2024-03-07T05:55:55;4.40;99.90
21312;DHT22;18076;52.154;10.570;2024-03-07T05:58:21;4.40;99.90
21312;DHT22;18076;52.154;10.570;2024-03-07T06:00:47;4.40;99.90
21312;DHT22;18076;52.154;10.570;2024-03-07T06:03:18;4.50;99.90
21312;DHT22;18076;52.154;10.570;2024-03-07T06:05:45;4.50;99.90
21312;DHT22;18076;52.154;10.570;2024-03-07T06:08:14;4.60;99.90
21312;DHT22;18076;52.154;10.570;2024-03-07T06:10:42;4.60;99.90
21312;DHT22;18076;52.154;10.570;2024-03-07T06:13:08;4.70;99.90
21312;DHT22;18076;52.154;10.570;2024-03-07T06:15:34;4.70;99.90
21312;DHT22;18076;52.154;10.570;2024-03-07T06:18:00;4.80;99.90
21312;DHT22;18076;52.154;10.570;2024-03-07T06:20:26;4.80;99.90
21312;DHT22;18076;52.154;10.570;2024-03-07T06:22:51;4.80;99.90
21312;DHT22;18076;52.154;10.570;2024-03-07T06:25:17;4.90;99.90
21312;DHT22;18076;52.154;10.570;2024-03-07T06:27:46;4.90;99.90
21312;DHT22;18076;52.154;10.570;2024-03-07T06:30:15;5.00;99.90
21312;DHT22;18076;52.154;10.570;2024-03-07T06:32:44;5.00;99.90
21312;DHT22;18076;52.154;10.570;2024-03-07T06:35:09;5.00;99.90
21312;DHT22;18076;52.154;10.570;2024-03-07T06:37:38;5.00;99.90
21312;DHT22;18076;52.154;10.570;2024-03-07T06:40:04;5.10;99.90
21312;DHT22;18076;52.154;10.570;2024-03-07T06:42:31;5.10;99.90
21312;DHT22;18076;52.154;10.570;2024-03-07T06:44:58;5.10;99.90
21312;DHT22;18076;52.154;10.570;2024-03-07T06:47:23;5.10;99.90
21312;DHT22;18076;52.154;10.570;2024-03-07T06:49:50;5.10;99.90
21312;DHT22;18076;52.154;10.570;2024-03-07T06:52:17;5.10;99.90
21312;DHT22;18076;52.154;10.570;2024-03-07T06:54:43;5.20;99.90
21312;DHT22;18076;52.154;10.570;2024-03-07T06:57:09;5.20;99.90
21312;DHT22;18076;52.154;10.570;2024-03-07T06:59:34;5.30;99.90
21312;DHT22;18076;52.154;10.570;2024-03-07T07:02:02;5.30;99.90
21312;DHT22;18076;52.154;10.570;2024-03-07T07:04:28;5.30;99.90
21312;DHT22;18076;52.154;10.570;2024-03-07T07:07:09;5.40;99.90
21312;DHT22;18076;52.154;10.570;2024-03-07T07:09:37;5.40;99.90
21312;DHT22;18076;52.154;10.570;2024-03-07T07:12:02;5.50;99.90
21312;DHT22;18076;52.154;10.570;2024-03-07T07:14:29;5.50;99.90
21312;DHT22;18076;52.154;10.570;2024-03-07T07:16:54;5.50;99.90
21312;DHT22;18076;52.154;10.570;2024-03-07T07:19:21;5.50;99.90
21312;DHT22;18076;52.154;10.570;2024-03-07T07:21:47;5.50;99.90
21312;DHT22;18076;52.154;10.570;2024-03-07T07:24:22;5.50;99.90
21312;DHT22;18076;52.154;10.570;2024-03-07T07:26:52;5.50;99.90
21312;DHT22;18076;52.154;10.570;2024-03-07T07:29:17;5.50;99.90
21312;DHT22;18076;52.154;10.570;2024-03-07T07:31:43;5.50;99.90
21312;DHT22;18076;52.154;10.570;2024-03-07T07:34:10;5.60;99.90
21312;DHT22;18076;52.154;10.570;2024-03-07T07:36:36;5.60;99.90
21312;DHT22;18076;52.154;10.570;2024-03-07T07:39:01;5.60;99.90
21312;DHT22;18076;52.154;10.570;2024-03-07T07:41:28;5.60;99.90
21312;DHT22;18076;52.154;10.570;2024-03-07T07:43:55;5.60;99.90
21312;DHT22;18076;52.154;10.570;2024-03-07T07:46:21;5.60;99.90
21312;DHT22;18076;52.154;10.570;2024-03-07T07:48:47;5.70;99.90
21312;DHT22;18076;52.154;10.570;2024-03-07T07:51:13;5.80;99.90
21312;DHT22;18076;52.154;10.570;2024-03-07T07:53:38;5.90;99.90
21312;DHT22;18076;52.154;10.570;2024-03-07T07:56:04;5.90;99.90
21312;DHT22;18076;52.154;10.570;2024-03-07T07:58:30;5.90;99.90
21312;DHT22;18076;52.154;10.570;2024-03-07T08:00:56;5.90;99.90
21312;DHT22;18076;52.154;10.570;2024-03-07T08:03:21;5.90;99.90
21312;DHT22;18076;52.154;10.570;2024-03-07T08:05:47;6.00;99.90
21312;DHT22;18076;52.154;10.570;2024-03-07T08:08:13;6.10;99.90
21312;DHT22;18076;52.154;10.570;2024-03-07T08:10:41;6.10;99.90
21312;DHT22;18076;52.154;10.570;2024-03-07T08:13:07;6.00;99.90
21312;DHT22;18076;52.154;10.570;2024-03-07T08:15:34;6.00;99.90
21312;DHT22;18076;52.154;10.570;2024-03-07T08:18:01;5.90;99.90
21312;DHT22;18076;52.154;10.570;2024-03-07T08:20:33;5.90;99.90
21312;DHT22;18076;52.154;10.570;2024-03-07T08:23:00;5.90;99.90
21312;DHT22;18076;52.154;10.570;2024-03-07T08:25:26;5.90;99.90
21312;DHT22;18076;52.154;10.570;2024-03-07T08:27:53;6.00;99.90
21312;DHT22;18076;52.154;10.570;2024-03-07T08:30:19;6.00;99.90
21312;DHT22;18076;52.154;10.570;2024-03-07T08:32:45;6.00;99.90
21312;DHT22;18076;52.154;10.570;2024-03-07T08:35:11;6.10;99.90
21312;DHT22;18076;52.154;10.570;2024-03-07T08:37:37;6.20;99.90
21312;DHT22;18076;52.154;10.570;2024-03-07T08:40:03;6.30;99.90
21312;DHT22;18076;52.154;10.570;2024-03-07T08:42:33;6.40;99.90
21312;DHT22;18076;52.154;10.570;2024-03-07T08:45:01;6.60;99.90
21312;DHT22;18076;52.154;10.570;2024-03-07T08:47:32;6.70;99.90
21312;DHT22;18076;52.154;10.570;2024-03-07T08:49:58;6.80;99.90
21312;DHT22;18076;52.154;10.570;2024-03-07T08:52:24;6.90;99.90
21312;DHT22;18076;52.154;10.570;2024-03-07T08:54:49;7.10;99.90
21312;DHT22;18076;52.154;10.570;2024-03-07T08:57:15;7.30;99.90
21312;DHT22;18076;52.154;10.570;2024-03-07T08:59:43;7.40;99.90
21312;DHT22;18076;52.154;10.570;2024-03-07T09:02:09;7.30;99.90
21312;DHT22;18076;52.154;10.570;2024-03-07T09:04:35;7.30;99.90
21312;DHT22;18076;52.154;10.570;2024-03-07T09:07:02;7.30;99.90
21312;DHT22;18076;52.154;10.570;2024-03-07T09:09:27;7.40;99.90
21312;DHT22;18076;52.154;10.570;2024-03-07T09:11:53;7.50;99.90
21312;DHT22;18076;52.154;10.570;2024-03-07T09:14:18;7.60;99.90
21312;DHT22;18076;52.154;10.570;2024-03-07T09:16:44;7.80;99.90
21312;DHT22;18076;52.154;10.570;2024-03-07T09:19:10;7.80;99.90
21312;DHT22;18076;52.154;10.570;2024-03-07T09:21:39;7.80;99.90
21312;DHT22;18076;52.154;10.570;2024-03-07T09:24:05;8.20;99.90
21312;DHT22;18076;52.154;10.570;2024-03-07T09:26:32;8.30;99.90
21312;DHT22;18076;52.154;10.570;2024-03-07T09:28:59;8.30;99.90
21312;DHT22;18076;52.154;10.570;2024-03-07T09:31:31;8.30;99.90
21312;DHT22;18076;52.154;10.570;2024-03-07T09:33:57;8.30;99.90
21312;DHT22;18076;52.154;10.570;2024-03-07T09:36:24;8.50;99.90
21312;DHT22;18076;52.154;10.570;2024-03-07T09:38:49;8.70;99.90
21312;DHT22;18076;52.154;10.570;2024-03-07T09:41:15;8.80;99.90
21312;DHT22;18076;52.154;10.570;2024-03-07T09:43:48;9.20;99.90
21312;DHT22;18076;52.154;10.570;2024-03-07T09:46:16;9.60;99.90
21312;DHT22;18076;52.154;10.570;2024-03-07T09:48:43;10.30;99.90
21312;DHT22;18076;52.154;10.570;2024-03-07T09:51:09;10.90;99.90
21312;DHT22;18076;52.154;10.570;2024-03-07T09:53:36;11.00;99.90
21312;DHT22;18076;52.154;10.570;2024-03-07T09:56:03;11.20;99.90
21312;DHT22;18076;52.154;10.570;2024-03-07T09:58:29;11.50;99.90
21312;DHT22;18076;52.154;10.570;2024-03-07T10:00:56;11.90;99.90
21312;DHT22;18076;52.154;10.570;2024-03-07T10:03:23;11.80;99.90
21312;DHT22;18076;52.154;10.570;2024-03-07T10:05:50;11.90;99.90
21312;DHT22;18076;52.154;10.570;2024-03-07T10:08:17;11.70;99.90
21312;DHT22;18076;52.154;10.570;2024-03-07T10:10:46;11.80;99.90
21312;DHT22;18076;52.154;10.570;2024-03-07T10:13:12;11.40;99.90
21312;DHT22;18076;52.154;10.570;2024-03-07T10:15:38;11.30;99.90
21312;DHT22;18076;52.154;10.570;2024-03-07T10:18:08;11.60;99.90
21312;DHT22;18076;52.154;10.570;2024-03-07T10:20:36;11.90;99.90
21312;DHT22;18076;52.154;10.570;2024-03-07T10:23:02;12.10;99.90
21312;DHT22;18076;52.154;10.570;2024-03-07T10:25:28;12.50;99.90
21312;DHT22;18076;52.154;10.570;2024-03-07T10:27:54;12.30;99.90
21312;DHT22;18076;52.154;10.570;2024-03-07T10:30:19;11.40;99.90
21312;DHT22;18076;52.154;10.570;2024-03-07T10:32:51;10.40;99.90
21312;DHT22;18076;52.154;10.570;2024-03-07T10:35:21;9.80;99.90
21312;DHT22;18076;52.154;10.570;2024-03-07T10:37:53;9.30;99.90
21312;DHT22;18076;52.154;10.570;2024-03-07T10:40:22;9.00;99.90
21312;DHT22;18076;52.154;10.570;2024-03-07T10:42:48;8.90;99.90
21312;DHT22;18076;52.154;10.570;2024-03-07T10:45:20;8.70;99.90
21312;DHT22;18076;52.154;10.570;2024-03-07T10:47:53;8.80;99.90
21312;DHT22;18076;52.154;10.570;2024-03-07T10:50:23;9.50;99.90
21312;DHT22;18076;52.154;10.570;2024-03-07T10:55:21;11.00;99.90
21312;DHT22;18076;52.154;10.570;2024-03-07T10:57:52;11.50;99.90
21312;DHT22;18076;52.154;10.570;2024-03-07T11:00:25;11.80;99.90
21312;DHT22;18076;52.154;10.570;2024-03-07T11:03:05;11.70;99.90
21312;DHT22;18076;52.154;10.570;2024-03-07T11:05:32;11.40;99.90
21312;DHT22;18076;52.154;10.570;2024-03-07T11:07:58;10.90;99.90
21312;DHT22;18076;52.154;10.570;2024-03-07T11:10:25;10.30;99.90
21312;DHT22;18076;52.154;10.570;2024-03-07T11:12:50;9.70;99.90
21312;DHT22;18076;52.154;10.570;2024-03-07T11:15:17;9.30;99.90
21312;DHT22;18076;52.154;10.570;2024-03-07T11:17:45;9.00;99.90
21312;DHT22;18076;52.154;10.570;2024-03-07T11:20:18;8.90;99.90
21312;DHT22;18076;52.154;10.570;2024-03-07T11:22:45;8.80;99.90
21312;DHT22;18076;52.154;10.570;2024-03-07T11:25:11;8.80;99.90
21312;DHT22;18076;52.154;10.570;2024-03-07T11:27:37;8.90;99.90
21312;DHT22;18076;52.154;10.570;2024-03-07T11:30:08;9.20;99.90
21312;DHT22;18076;52.154;10.570;2024-03-07T11:32:40;9.10;99.90
21312;DHT22;18076;52.154;10.570;2024-03-07T11:35:13;9.00;99.90
21312;DHT22;18076;52.154;10.570;2024-03-07T11:37:43;8.90;99.90
21312;DHT22;18076;52.154;10.570;2024-03-07T11:40:12;8.80;99.90
21312;DHT22;18076;52.154;10.570;2024-03-07T11:42:43;8.70;99.90
21312;DHT22;18076;52.154;10.570;2024-03-07T11:45:09;8.70;99.90
21312;DHT22;18076;52.154;10.570;2024-03-07T11:47:45;8.70;99.90
21312;DHT22;18076;52.154;10.570;2024-03-07T11:50:11;8.50;99.90
21312;DHT22;18076;52.154;10.570;2024-03-07T11:52:40;8.50;99.90
21312;DHT22;18076;52.154;10.570;2024-03-07T11:55:09;8.30;99.90
21312;DHT22;18076;52.154;10.570;2024-03-07T11:57:35;8.40;99.90
21312;DHT22;18076;52.154;10.570;2024-03-07T12:00:03;8.90;99.90
21312;DHT22;18076;52.154;10.570;2024-03-07T12:02:38;9.40;99.90
21312;DHT22;18076;52.154;10.570;2024-03-07T12:05:04;10.00;99.90
21312;DHT22;18076;52.154;10.570;2024-03-07T12:07:31;10.10;99.90
21312;DHT22;18076;52.154;10.570;2024-03-07T12:09:56;9.70;99.90
21312;DHT22;18076;52.154;10.570;2024-03-07T12:12:22;9.30;99.90
21312;DHT22;18076;52.154;10.570;2024-03-07T12:14:48;8.90;99.90
21312;DHT22;18076;52.154;10.570;2024-03-07T12:17:16;8.80;99.90
21312;DHT22;18076;52.154;10.570;2024-03-07T12:19:43;8.70;99.90
21312;DHT22;18076;52.154;10.570;2024-03-07T12:22:08;8.60;99.90
21312;DHT22;18076;52.154;10.570;2024-03-07T12:24:38;8.50;99.90
21312;DHT22;18076;52.154;10.570;2024-03-07T12:27:09;8.40;99.90
21312;DHT22;18076;52.154;10.570;2024-03-07T12:29:35;8.50;99.90
21312;DHT22;18076;52.154;10.570;2024-03-07T12:32:04;8.50;99.90
21312;DHT22;18076;52.154;10.570;2024-03-07T12:34:32;8.60;99.90
21312;DHT22;18076;52.154;10.570;2024-03-07T12:37:02;8.60;99.90
21312;DHT22;18076;52.154;10.570;2024-03-07T12:39:27;8.60;99.90
21312;DHT22;18076;52.154;10.570;2024-03-07T12:41:58;8.60;99.90
21312;DHT22;18076;52.154;10.570;2024-03-07T12:44:24;8.60;99.90
21312;DHT22;18076;52.154;10.570;2024-03-07T12:46:52;8.60;99.90
21312;DHT22;18076;52.154;10.570;2024-03-07T12:49:24;8.60;99.90
21312;DHT22;18076;52.154;10.570;2024-03-07T12:51:55;8.70;99.90
21312;DHT22;18076;52.154;10.570;2024-03-07T12:54:22;8.70;99.90
21312;DHT22;18076;52.154;10.570;2024-03-07T12:56:48;8.70;99.90
21312;DHT22;18076;52.154;10.570;2024-03-07T12:59:16;8.80;99.90
21312;DHT22;18076;52.154;10.570;2024-03-07T13:01:42;8.70;99.90
21312;DHT22;18076;52.154;10.570;2024-03-07T13:04:10;8.80;99.90
21312;DHT22;18076;52.154;10.570;2024-03-07T13:06:36;8.80;99.90
21312;DHT22;18076;52.154;10.570;2024-03-07T13:09:02;8.90;99.90
21312;DHT22;18076;52.154;10.570;2024-03-07T13:11:28;8.80;99.90
21312;DHT22;18076;52.154;10.570;2024-03-07T13:13:57;8.70;99.90
21312;DHT22;18076;52.154;10.570;2024-03-07T13:16:23;8.60;99.90
21312;DHT22;18076;52.154;10.570;2024-03-07T13:18:53;8.50;99.90
21312;DHT22;18076;52.154;10.570;2024-03-07T13:21:19;8.50;99.90
21312;DHT22;18076;52.154;10.570;2024-03-07T13:23:45;8.50;99.90
21312;DHT22;18076;52.154;10.570;2024-03-07T13:26:11;8.50;99.90
21312;DHT22;18076;52.154;10.570;2024-03-07T13:28:44;8.70;99.90
21312;DHT22;18076;52.154;10.570;2024-03-07T13:31:10;8.70;99.90
21312;DHT22;18076;52.154;10.570;2024-03-07T13:33:45;8.60;99.90
21312;DHT22;18076;52.154;10.570;2024-03-07T13:36:11;8.60;99.90
21312;DHT22;18076;52.154;10.570;2024-03-07T13:38:36;8.60;99.90
21312;DHT22;18076;52.154;10.570;2024-03-07T13:41:03;8.50;99.90
21312;DHT22;18076;52.154;10.570;2024-03-07T13:43:32;8.50;99.90
21312;DHT22;18076;52.154;10.570;2024-03-07T13:45:59;8.50;99.90
21312;DHT22;18076;52.154;10.570;2024-03-07T13:48:24;8.50;99.90
21312;DHT22;18076;52.154;10.570;2024-03-07T13:50:50;8.50;99.90
21312;DHT22;18076;52.154;10.570;2024-03-07T13:53:18;8.50;99.90
21312;DHT22;18076;52.154;10.570;2024-03-07T14:09:17;8.80;99.90
21312;DHT22;18076;52.154;10.570;2024-03-07T14:22:33;8.80;99.90
21312;DHT22;18076;52.154;10.570;2024-03-07T14:27:59;8.60;99.90
21312;DHT22;18076;52.154;10.570;2024-03-07T14:30:53;8.50;99.90
21312;DHT22;18076;52.154;10.570;2024-03-07T14:33:25;8.50;99.90
21312;DHT22;18076;52.154;10.570;2024-03-07T14:38:51;9.10;99.90
21312;DHT22;18076;52.154;10.570;2024-03-07T14:41:19;9.40;99.90
21312;DHT22;18076;52.154;10.570;2024-03-07T14:43:47;9.40;99.90
21312;DHT22;18076;52.154;10.570;2024-03-07T14:46:14;9.10;99.90
21312;DHT22;18076;52.154;10.570;2024-03-07T14:48:40;9.00;99.90
21312;DHT22;18076;52.154;10.570;2024-03-07T14:51:07;8.80;99.90
21312;DHT22;18076;52.154;10.570;2024-03-07T14:53:33;8.70;99.90
21312;DHT22;18076;52.154;10.570;2024-03-07T14:55:58;8.90;99.90
21312;DHT22;18076;52.154;10.570;2024-03-07T14:58:24;9.10;99.90
21312;DHT22;18076;52.154;10.570;2024-03-07T15:00:50;9.30;99.90
21312;DHT22;18076;52.154;10.570;2024-03-07T15:03:18;9.40;99.90
21312;DHT22;18076;52.154;10.570;2024-03-07T15:05:44;9.40;99.90
21312;DHT22;18076;52.154;10.570;2024-03-07T15:08:10;9.30;99.90
21312;DHT22;18076;52.154;10.570;2024-03-07T15:10:37;9.30;99.90
21312;DHT22;18076;52.154;10.570;2024-03-07T15:13:04;9.20;99.90
21312;DHT22;18076;52.154;10.570;2024-03-07T15:15:30;9.10;99.90
21312;DHT22;18076;52.154;10.570;2024-03-07T15:17:56;9.10;99.90
21312;DHT22;18076;52.154;10.570;2024-03-07T15:20:23;9.10;99.90
21312;DHT22;18076;52.154;10.570;2024-03-07T15:22:52;9.10;99.90
21312;DHT22;18076;52.154;10.570;2024-03-07T15:25:21;8.90;99.90
21312;DHT22;18076;52.154;10.570;2024-03-07T15:27:50;8.80;99.90
21312;DHT22;18076;52.154;10.570;2024-03-07T15:30:16;8.70;99.90
21312;DHT22;18076;52.154;10.570;2024-03-07T15:32:43;8.60;99.90
21312;DHT22;18076;52.154;10.570;2024-03-07T15:35:12;8.50;99.90
21312;DHT22;18076;52.154;10.570;2024-03-07T15:37:39;8.40;99.90
21312;DHT22;18076;52.154;10.570;2024-03-07T15:40:07;8.30;99.90
21312;DHT22;18076;52.154;10.570;2024-03-07T15:42:41;8.20;99.90
21312;DHT22;18076;52.154;10.570;2024-03-07T15:45:08;8.10;99.90
21312;DHT22;18076;52.154;10.570;2024-03-07T15:47:42;8.00;99.90
21312;DHT22;18076;52.154;10.570;2024-03-07T15:50:08;8.10;99.90
21312;DHT22;18076;52.154;10.570;2024-03-07T15:52:33;8.30;99.90
21312;DHT22;18076;52.154;10.570;2024-03-07T15:55:00;8.30;99.90
21312;DHT22;18076;52.154;10.570;2024-03-07T15:57:31;8.30;99.90
21312;DHT22;18076;52.154;10.570;2024-03-07T15:59:57;8.30;99.90
21312;DHT22;18076;52.154;10.570;2024-03-07T16:02:22;8.20;99.90
21312;DHT22;18076;52.154;10.570;2024-03-07T16:04:48;8.10;99.90